createdAt,value
2018-07-27T00:00:46.657Z,9.17
2018-07-27T00:06:41.646Z,9.27
2018-07-27T00:12:36.626Z,10.28
2018-07-27T00:18:31.657Z,9.53
2018-07-27T00:24:26.644Z,9.16
2018-07-27T00:30:21.646Z,8.5
2018-07-27T00:36:16.683Z,8.57
2018-07-27T00:42:11.692Z,10
2018-07-27T00:48:06.651Z,9.44
2018-07-27T00:54:01.669Z,8.91
2018-07-27T00:59:56.683Z,9.21
2018-07-27T01:05:51.652Z,8.48
2018-07-27T01:11:46.652Z,8.96
2018-07-27T01:17:41.661Z,9.04
2018-07-27T01:23:36.662Z,8.85
2018-07-27T01:29:31.665Z,8.96
2018-07-27T01:35:26.670Z,8.96
2018-07-27T01:41:21.652Z,9.08
2018-07-27T01:47:16.650Z,9.49
2018-07-27T01:53:11.665Z,10.01
2018-07-27T01:59:06.648Z,9.6
2018-07-27T02:05:01.700Z,9.55
2018-07-27T02:10:56.684Z,9.86
2018-07-27T02:16:51.717Z,9.6
2018-07-27T02:22:46.651Z,8.98
2018-07-27T02:28:41.656Z,9.36
2018-07-27T02:34:36.713Z,9.32
2018-07-27T02:40:31.686Z,9.36
2018-07-27T02:46:26.718Z,9.01
2018-07-27T02:52:21.719Z,9.72
2018-07-27T02:58:16.682Z,9.83
2018-07-27T03:04:11.670Z,9.03
2018-07-27T03:10:06.667Z,9.21
2018-07-27T03:16:01.677Z,9.1
2018-07-27T03:21:56.650Z,9
2018-07-27T03:27:51.685Z,9.33
2018-07-27T03:33:46.693Z,9.42
2018-07-27T03:39:41.720Z,10.14
2018-07-27T03:45:36.692Z,10.33
2018-07-27T03:51:31.708Z,9.4
2018-07-27T03:57:26.656Z,9.99
2018-07-27T04:03:21.684Z,8.96
2018-07-27T04:09:16.679Z,10.45
2018-07-27T04:15:11.680Z,10.22
2018-07-27T04:21:06.666Z,11.63
2018-07-27T04:27:01.670Z,10.78
2018-07-27T04:32:56.685Z,10.73
2018-07-27T04:38:51.667Z,12.11
2018-07-27T04:44:46.716Z,10.87
2018-07-27T04:50:41.706Z,12.21
2018-07-27T04:56:36.810Z,9.58
2018-07-27T05:02:31.725Z,9.53
2018-07-27T05:08:26.672Z,10.16
2018-07-27T05:14:21.696Z,10.59
2018-07-27T05:20:16.702Z,11.17
2018-07-27T05:26:11.675Z,10.53
2018-07-27T05:32:06.671Z,12.53
2018-07-27T05:38:01.687Z,10.51
2018-07-27T05:43:56.702Z,10.18
2018-07-27T05:49:51.688Z,10.65
2018-07-27T05:55:46.673Z,10.66
2018-07-27T06:01:41.733Z,10.67
2018-07-27T06:07:36.718Z,11.42
2018-07-27T06:13:31.703Z,10.38
2018-07-27T06:19:26.705Z,12.07
2018-07-27T06:25:21.671Z,10.32
2018-07-27T06:31:16.710Z,10.58
2018-07-27T06:37:11.740Z,11.55
2018-07-27T06:43:06.707Z,11.37
2018-07-27T06:49:01.669Z,18.03
2018-07-27T06:54:56.689Z,18.31
2018-07-27T07:00:51.700Z,19.52
2018-07-27T07:06:46.687Z,23.18
2018-07-27T07:12:41.744Z,29.92
2018-07-27T07:18:36.694Z,22.22
2018-07-27T07:24:31.677Z,14.17
2018-07-27T07:30:26.685Z,12.27
2018-07-27T07:36:21.691Z,13.47
2018-07-27T07:42:16.698Z,12.64
2018-07-27T07:48:11.703Z,11.69
2018-07-27T07:54:06.683Z,12.17
2018-07-27T08:00:01.788Z,11.33
2018-07-27T08:05:56.734Z,9.92
2018-07-27T08:11:51.715Z,13.95
2018-07-27T08:17:46.705Z,12.97
2018-07-27T08:23:41.694Z,11.04
2018-07-27T08:29:36.721Z,12.89
2018-07-27T08:35:31.749Z,11.21
2018-07-27T08:41:26.704Z,9.9
2018-07-27T08:47:21.833Z,9.98
2018-07-27T08:53:16.777Z,9.73
2018-07-27T08:59:11.688Z,10.6
2018-07-27T09:05:06.714Z,9.88
2018-07-27T09:11:01.735Z,9.93
2018-07-27T09:16:56.724Z,10.92
2018-07-27T09:22:51.704Z,8.65
2018-07-27T09:28:46.726Z,8.3
2018-07-27T09:34:41.729Z,9.58
2018-07-27T09:40:36.797Z,9.24
2018-07-27T09:46:31.796Z,9.14
2018-07-27T09:52:26.709Z,9.32
2018-07-27T09:58:21.779Z,9.89
2018-07-27T10:04:16.730Z,9.67
2018-07-27T10:10:11.731Z,9.42
2018-07-27T10:16:06.741Z,10.12
2018-07-27T10:27:56.744Z,9.55
2018-07-27T10:27:56.755Z,9.57
2018-07-27T16:28:51.797Z,6.21
2018-07-27T16:34:46.836Z,10.5
2018-07-27T19:50:01.817Z,10.44
2018-07-27T23:17:06.855Z,11.18
2018-07-27T23:23:01.847Z,13.45
2018-07-27T23:40:46.887Z,12.63
2018-07-27T23:40:52.035Z,12.6
2018-07-27T23:40:52.052Z,12.6
2018-07-27T23:46:41.880Z,13.39
